createdAt,value
2019-03-20T00:00:00.575Z,0.00
2019-03-20T00:01:00.583Z,0.00
2019-03-20T00:02:53.483Z,0.00
2019-03-20T00:03:53.541Z,0.00
2019-03-20T00:05:46.373Z,0.00
2019-03-20T00:06:46.381Z,0.00
2019-03-20T00:08:39.284Z,0.00
2019-03-20T00:09:39.285Z,0.00
2019-03-20T00:11:32.177Z,0.00
2019-03-20T00:12:32.184Z,0.00
2019-03-20T00:14:25.084Z,0.00
2019-03-20T00:15:25.085Z,0.00
2019-03-20T00:17:17.985Z,0.00
2019-03-20T00:18:17.986Z,0.00
2019-03-20T00:20:10.880Z,0.00
2019-03-20T00:21:10.887Z,0.00
2019-03-20T00:23:03.793Z,0.00
2019-03-20T00:24:03.790Z,0.00
2019-03-20T00:25:56.686Z,0.00
2019-03-20T00:26:56.693Z,0.00
2019-03-20T00:28:49.589Z,0.00
2019-03-20T00:29:49.592Z,0.00
2019-03-20T00:31:42.482Z,0.00
2019-03-20T00:32:42.491Z,0.00
2019-03-20T00:34:35.882Z,0.00
2019-03-20T00:35:35.886Z,0.00
2019-03-20T00:37:28.786Z,0.00
2019-03-20T00:38:28.790Z,0.00
2019-03-20T00:40:21.681Z,0.00
2019-03-20T00:41:21.687Z,0.00
2019-03-20T00:43:14.584Z,0.00
2019-03-20T00:44:14.586Z,0.00
2019-03-20T00:46:07.479Z,0.00
2019-03-20T00:47:07.487Z,0.00
2019-03-20T00:49:00.385Z,0.00
2019-03-20T00:50:00.386Z,0.00
2019-03-20T00:51:53.280Z,0.00
2019-03-20T00:52:53.289Z,0.00
2019-03-20T00:54:46.185Z,0.00
2019-03-20T00:55:46.187Z,0.00
2019-03-20T00:57:39.087Z,0.00
2019-03-20T00:58:39.852Z,0.00
2019-03-20T01:00:32.081Z,0.00
2019-03-20T01:01:32.091Z,0.00
2019-03-20T01:03:24.988Z,0.00
2019-03-20T01:04:24.991Z,0.00
2019-03-20T01:06:17.882Z,0.00
2019-03-20T01:07:17.888Z,0.00
2019-03-20T01:09:10.788Z,0.00
2019-03-20T01:10:10.789Z,0.00
2019-03-20T01:12:04.188Z,0.00
2019-03-20T01:13:04.183Z,0.00
2019-03-20T01:14:57.076Z,0.00
2019-03-20T01:15:57.083Z,0.00
2019-03-20T01:17:49.982Z,0.00
2019-03-20T01:18:49.982Z,0.00
2019-03-20T01:20:42.874Z,0.00
2019-03-20T01:21:42.881Z,0.00
2019-03-20T01:23:35.780Z,0.00
2019-03-20T01:24:35.781Z,0.00
2019-03-20T01:26:28.673Z,0.00
2019-03-20T01:27:28.681Z,0.00
2019-03-20T01:29:21.577Z,0.00
2019-03-20T01:30:21.579Z,0.00
2019-03-20T01:32:14.475Z,0.00
2019-03-20T01:33:14.483Z,0.00
2019-03-20T01:35:07.368Z,0.00
2019-03-20T01:36:07.375Z,0.00
2019-03-20T01:38:00.764Z,0.00
2019-03-20T01:39:00.772Z,0.00
2019-03-20T01:40:53.664Z,0.00
2019-03-20T01:41:53.674Z,0.00
2019-03-20T01:43:46.567Z,0.00
2019-03-20T01:44:46.569Z,0.00
2019-03-20T01:46:39.463Z,0.00
2019-03-20T01:47:39.474Z,0.00
2019-03-20T01:49:32.369Z,0.00
2019-03-20T01:50:32.370Z,0.00
2019-03-20T01:52:25.283Z,0.00
2019-03-20T01:53:25.268Z,0.00
2019-03-20T01:55:18.158Z,0.00
2019-03-20T01:56:18.165Z,0.00
2019-03-20T01:58:11.062Z,0.00
2019-03-20T01:59:11.063Z,0.00
2019-03-20T02:01:03.955Z,0.00
2019-03-20T02:02:03.962Z,0.00
2019-03-20T02:03:56.860Z,0.00
2019-03-20T02:04:56.862Z,0.00
2019-03-20T02:06:49.754Z,0.00
2019-03-20T02:07:49.764Z,0.00
2019-03-20T02:09:43.152Z,0.00
2019-03-20T02:10:43.153Z,0.00
2019-03-20T02:12:36.040Z,0.00
2019-03-20T02:13:36.048Z,0.00
2019-03-20T02:15:38.267Z,0.00
2019-03-20T02:16:28.947Z,0.00
2019-03-20T02:18:21.845Z,0.00
2019-03-20T02:19:21.844Z,0.00
2019-03-20T02:21:14.734Z,0.00
2019-03-20T02:22:14.744Z,0.00
2019-03-20T02:24:07.640Z,0.00
2019-03-20T02:25:07.641Z,0.00
2019-03-20T02:27:00.534Z,0.00
2019-03-20T02:28:00.540Z,0.00
2019-03-20T02:29:53.440Z,0.00
2019-03-20T02:30:53.450Z,0.00
2019-03-20T02:32:46.373Z,0.00
2019-03-20T02:33:46.333Z,0.00
2019-03-20T02:35:50.698Z,0.00
2019-03-20T02:36:39.244Z,0.00
2019-03-20T02:38:32.127Z,0.00
2019-03-20T02:39:32.128Z,0.00
2019-03-20T02:41:25.022Z,0.00
2019-03-20T02:42:25.028Z,0.00
2019-03-20T02:44:17.927Z,0.00
2019-03-20T02:45:17.928Z,0.00
2019-03-20T02:47:10.819Z,0.00
2019-03-20T02:48:10.827Z,0.00
2019-03-20T02:50:03.726Z,0.00
2019-03-20T02:51:03.727Z,0.00
2019-03-20T02:52:56.619Z,0.00
2019-03-20T02:53:56.622Z,0.00
2019-03-20T02:55:49.524Z,0.00
2019-03-20T02:56:49.521Z,0.00
2019-03-20T02:58:42.434Z,0.00
2019-03-20T02:59:42.421Z,0.00
2019-03-20T03:01:35.803Z,0.00
2019-03-20T03:02:35.812Z,0.00
2019-03-20T03:04:28.723Z,0.00
2019-03-20T03:05:28.707Z,0.00
2019-03-20T03:07:21.601Z,0.00
2019-03-20T03:08:21.606Z,0.00
2019-03-20T03:10:15.998Z,0.00
2019-03-20T03:11:15.999Z,0.00
2019-03-20T03:13:08.892Z,0.00
2019-03-20T03:14:08.896Z,0.00
2019-03-20T03:16:01.792Z,0.00
2019-03-20T03:17:01.794Z,0.00
2019-03-20T03:18:54.689Z,0.00
2019-03-20T03:19:54.692Z,0.00
2019-03-20T03:21:47.580Z,0.00
2019-03-20T03:22:47.586Z,0.00
2019-03-20T03:24:40.989Z,0.00
2019-03-20T03:25:40.989Z,0.00
2019-03-20T03:27:33.877Z,0.00
2019-03-20T03:28:33.887Z,0.00
2019-03-20T03:30:26.782Z,0.00
2019-03-20T03:31:26.783Z,0.00
2019-03-20T03:33:19.677Z,0.00
2019-03-20T03:34:19.680Z,0.00
2019-03-20T03:36:21.324Z,0.00
2019-03-20T03:37:12.578Z,0.00
2019-03-20T03:39:05.481Z,0.00
2019-03-20T03:40:05.482Z,0.00
2019-03-20T03:41:58.366Z,0.00
2019-03-20T03:42:58.385Z,0.00
2019-03-20T03:44:51.763Z,0.00
2019-03-20T03:45:51.764Z,0.00
2019-03-20T03:47:44.659Z,0.00
2019-03-20T03:48:44.661Z,0.00
2019-03-20T03:50:37.556Z,0.00
2019-03-20T03:51:37.553Z,0.00
2019-03-20T03:53:30.446Z,0.00
2019-03-20T03:54:30.451Z,0.00
2019-03-20T03:56:23.352Z,0.00
2019-03-20T03:57:23.361Z,0.00
2019-03-20T03:59:16.246Z,0.00
2019-03-20T04:00:16.347Z,0.00
2019-03-20T04:02:09.133Z,0.00
2019-03-20T04:03:09.139Z,0.00
2019-03-20T04:05:02.055Z,0.00
2019-03-20T04:06:02.039Z,0.00
2019-03-20T04:07:54.929Z,0.00
2019-03-20T04:08:54.933Z,0.00
2019-03-20T04:10:47.830Z,0.00
2019-03-20T04:11:47.830Z,0.00
2019-03-20T04:13:40.732Z,0.00
2019-03-20T04:14:40.730Z,0.00
2019-03-20T04:16:33.626Z,0.00
2019-03-20T04:17:33.627Z,0.00
2019-03-20T04:19:26.522Z,0.00
2019-03-20T04:20:26.521Z,0.00
2019-03-20T04:22:19.424Z,0.00
2019-03-20T04:23:19.416Z,0.00
2019-03-20T04:25:12.339Z,0.00
2019-03-20T04:26:12.316Z,0.00
2019-03-20T04:28:05.204Z,0.00
2019-03-20T04:29:05.209Z,0.00
2019-03-20T04:30:58.110Z,0.00
2019-03-20T04:31:58.105Z,0.00
2019-03-20T04:33:50.996Z,0.00
2019-03-20T04:34:51.002Z,0.00
2019-03-20T04:36:48.046Z,0.00
2019-03-20T04:37:43.902Z,0.00
2019-03-20T04:39:36.799Z,0.00
2019-03-20T04:40:36.798Z,0.00
2019-03-20T04:42:29.691Z,0.00
2019-03-20T04:43:29.694Z,0.00
2019-03-20T04:45:22.593Z,0.00
2019-03-20T04:46:22.592Z,0.00
2019-03-20T04:48:15.477Z,0.00
2019-03-20T04:49:15.483Z,0.00
2019-03-20T04:51:08.378Z,0.00
2019-03-20T04:52:08.380Z,0.00
2019-03-20T04:54:01.268Z,0.00
2019-03-20T04:55:01.276Z,0.00
2019-03-20T04:56:54.173Z,0.00
2019-03-20T04:57:54.172Z,4.00
2019-03-20T04:59:47.102Z,0.00
2019-03-20T05:00:47.069Z,4.00
2019-03-20T05:02:39.959Z,4.00
2019-03-20T05:03:39.967Z,4.00
2019-03-20T05:05:32.864Z,8.00
2019-03-20T05:06:32.862Z,8.00
2019-03-20T05:08:25.750Z,12.00
2019-03-20T05:09:25.764Z,16.00
2019-03-20T05:11:19.145Z,16.00
2019-03-20T05:12:19.146Z,20.00
2019-03-20T05:14:12.527Z,32.00
2019-03-20T05:15:12.047Z,36.00
2019-03-20T05:17:05.081Z,48.00
2019-03-20T05:18:05.082Z,56.00
2019-03-20T05:19:57.978Z,76.00
2019-03-20T05:20:57.977Z,84.00
2019-03-20T05:22:50.868Z,104.00
2019-03-20T05:23:50.871Z,124.00
2019-03-20T05:25:43.774Z,152.00
2019-03-20T05:26:43.795Z,168.00
2019-03-20T05:28:36.850Z,200.00
2019-03-20T05:29:36.842Z,216.00
2019-03-20T05:31:29.740Z,256.00
2019-03-20T05:32:29.738Z,280.00
2019-03-20T05:34:22.628Z,328.00
2019-03-20T05:35:22.633Z,356.00
2019-03-20T05:37:15.529Z,408.00
2019-03-20T05:38:15.533Z,440.00
2019-03-20T05:40:08.426Z,488.00
2019-03-20T05:41:08.424Z,528.00
2019-03-20T05:43:01.317Z,592.00
2019-03-20T05:44:01.323Z,616.00
2019-03-20T05:45:54.219Z,688.00
2019-03-20T05:46:54.216Z,732.00
2019-03-20T05:48:47.105Z,800.00
2019-03-20T05:49:47.111Z,836.00
2019-03-20T05:51:40.008Z,896.00
2019-03-20T05:52:40.010Z,948.00
2019-03-20T05:54:32.896Z,1036.00
2019-03-20T05:55:32.906Z,1080.00
2019-03-20T05:57:25.811Z,1168.00
2019-03-20T05:58:25.812Z,1216.00
2019-03-20T06:00:18.709Z,1272.00
2019-03-20T06:01:18.707Z,1340.00
2019-03-20T06:03:11.603Z,1392.00
2019-03-20T06:04:11.606Z,1600.00
2019-03-20T06:06:04.503Z,2208.00
2019-03-20T06:07:04.499Z,2436.00
2019-03-20T06:08:57.393Z,2752.00
2019-03-20T06:09:57.397Z,2788.00
2019-03-20T06:11:50.299Z,2888.00
2019-03-20T06:12:50.296Z,2980.00
2019-03-20T06:14:43.194Z,3232.00
2019-03-20T06:15:43.203Z,3616.00
2019-03-20T06:17:36.099Z,4004.00
2019-03-20T06:18:36.104Z,3932.00
2019-03-20T06:20:29.000Z,4348.00
2019-03-20T06:21:29.000Z,4496.00
2019-03-20T06:23:21.897Z,4640.00
2019-03-20T06:24:21.901Z,4688.00
2019-03-20T06:26:14.802Z,5596.00
2019-03-20T06:27:14.803Z,6164.00
2019-03-20T06:29:07.696Z,7340.00
2019-03-20T06:30:07.707Z,8300.00
2019-03-20T06:32:00.603Z,6312.00
2019-03-20T06:33:00.605Z,4992.00
2019-03-20T06:34:53.501Z,10840.00
2019-03-20T06:35:53.511Z,11504.00
2019-03-20T06:37:46.408Z,2876.00
2019-03-20T06:38:46.411Z,2756.00
2019-03-20T06:40:39.313Z,7764.00
2019-03-20T06:41:39.318Z,5640.00
2019-03-20T06:43:32.211Z,4024.00
2019-03-20T06:44:32.217Z,4252.00
2019-03-20T06:46:25.118Z,4720.00
2019-03-20T06:47:25.135Z,4972.00
2019-03-20T06:49:18.021Z,5304.00
2019-03-20T06:50:18.023Z,5024.00
2019-03-20T06:52:10.924Z,4624.00
2019-03-20T06:53:10.925Z,4672.00
2019-03-20T06:55:03.819Z,4528.00
2019-03-20T06:56:03.830Z,4396.00
2019-03-20T06:57:56.730Z,4564.00
2019-03-20T06:58:56.732Z,4888.00
2019-03-20T07:00:49.637Z,5112.00
2019-03-20T07:01:49.637Z,5044.00
2019-03-20T07:03:42.549Z,5076.00
2019-03-20T07:04:42.540Z,4804.00
2019-03-20T07:06:35.447Z,4192.00
2019-03-20T07:07:43.479Z,4020.00
2019-03-20T07:09:28.342Z,3840.00
2019-03-20T07:10:28.347Z,3828.00
2019-03-20T07:12:21.251Z,3820.00
2019-03-20T07:13:21.251Z,3848.00
2019-03-20T07:15:14.148Z,3896.00
2019-03-20T07:16:14.157Z,3948.00
2019-03-20T07:18:07.059Z,4096.00
2019-03-20T07:19:07.060Z,4008.00
2019-03-20T07:20:59.963Z,4184.00
2019-03-20T07:21:59.966Z,4316.00
2019-03-20T07:23:52.860Z,4460.00
2019-03-20T07:24:52.868Z,4796.00
2019-03-20T07:26:45.771Z,5960.00
2019-03-20T07:27:45.773Z,6504.00
2019-03-20T07:29:38.666Z,6632.00
2019-03-20T07:30:38.676Z,6232.00
2019-03-20T07:32:31.581Z,5484.00
2019-03-20T07:33:31.582Z,5240.00
2019-03-20T07:35:24.478Z,5304.00
2019-03-20T07:36:24.497Z,5324.00
2019-03-20T07:38:17.392Z,5800.00
2019-03-20T07:39:17.395Z,6100.00
2019-03-20T07:41:10.293Z,5708.00
2019-03-20T07:42:10.300Z,5340.00
2019-03-20T07:44:03.194Z,5140.00
2019-03-20T07:45:03.202Z,5192.00
2019-03-20T07:46:56.109Z,5524.00
2019-03-20T07:47:56.111Z,5992.00
2019-03-20T07:49:49.008Z,6412.00
2019-03-20T07:50:49.019Z,6584.00
2019-03-20T07:52:41.924Z,6172.00
2019-03-20T07:53:41.928Z,5976.00
2019-03-20T07:55:34.826Z,6024.00
2019-03-20T07:56:34.840Z,6388.00
2019-03-20T07:58:27.750Z,7784.00
2019-03-20T07:59:27.748Z,8444.00
2019-03-20T08:01:20.654Z,9012.00
2019-03-20T08:02:20.657Z,9108.00
2019-03-20T08:04:13.559Z,7952.00
2019-03-20T08:05:13.570Z,7592.00
2019-03-20T08:07:06.477Z,6352.00
2019-03-20T08:08:07.800Z,5316.00
2019-03-20T08:09:59.380Z,3940.00
2019-03-20T08:10:59.392Z,3608.00
2019-03-20T08:12:52.304Z,3396.00
2019-03-20T08:13:52.314Z,3460.00
2019-03-20T08:15:45.213Z,3684.00
2019-03-20T08:16:45.224Z,4096.00
2019-03-20T08:18:38.129Z,4168.00
2019-03-20T08:19:38.135Z,4216.00
2019-03-20T08:21:31.046Z,4244.00
2019-03-20T08:22:31.054Z,4212.00
2019-03-20T08:24:23.951Z,4204.00
2019-03-20T08:25:23.956Z,4224.00
2019-03-20T08:27:16.866Z,4272.00
2019-03-20T08:28:16.870Z,4328.00
2019-03-20T08:30:09.779Z,4460.00
2019-03-20T08:31:09.782Z,4516.00
2019-03-20T08:33:02.689Z,4640.00
2019-03-20T08:34:02.693Z,4640.00
2019-03-20T08:35:55.595Z,4760.00
2019-03-20T08:36:55.611Z,4868.00
2019-03-20T08:38:48.514Z,5020.00
2019-03-20T08:39:48.522Z,5060.00
2019-03-20T08:41:41.430Z,5156.00
2019-03-20T08:42:41.434Z,5148.00
2019-03-20T08:44:34.354Z,5208.00
2019-03-20T08:45:34.348Z,5196.00
2019-03-20T08:47:27.260Z,5140.00
2019-03-20T08:48:27.263Z,5100.00
2019-03-20T08:50:20.165Z,5048.00
2019-03-20T08:51:20.182Z,5056.00
2019-03-20T08:53:13.083Z,5128.00
2019-03-20T08:54:13.089Z,5168.00
2019-03-20T08:56:05.995Z,5304.00
2019-03-20T08:57:06.001Z,5400.00
2019-03-20T08:58:58.914Z,5436.00
2019-03-20T08:59:58.920Z,5416.00
2019-03-20T09:01:51.829Z,5452.00
2019-03-20T09:02:51.834Z,5396.00
2019-03-20T09:04:44.738Z,5392.00
2019-03-20T09:05:44.751Z,5428.00
2019-03-20T09:07:46.945Z,5512.00
2019-03-20T09:08:37.670Z,5576.00
2019-03-20T09:10:30.575Z,5748.00
2019-03-20T09:11:30.586Z,5848.00
2019-03-20T09:13:23.494Z,6076.00
2019-03-20T09:14:23.501Z,6172.00
2019-03-20T09:16:16.405Z,6300.00
2019-03-20T09:17:16.416Z,6372.00
2019-03-20T09:19:09.326Z,6500.00
2019-03-20T09:20:09.332Z,6592.00
2019-03-20T09:22:02.241Z,6836.00
2019-03-20T09:23:02.248Z,6976.00
2019-03-20T09:24:55.154Z,7184.00
2019-03-20T09:25:55.163Z,7320.00
2019-03-20T09:27:48.570Z,7484.00
2019-03-20T09:28:48.578Z,7592.00
2019-03-20T09:30:41.484Z,7968.00
2019-03-20T09:31:41.497Z,8320.00
2019-03-20T09:33:34.410Z,9264.00
2019-03-20T09:34:34.414Z,9924.00
2019-03-20T09:36:27.347Z,10996.00
2019-03-20T09:37:27.334Z,11496.00
2019-03-20T09:39:20.246Z,12284.00
2019-03-20T09:40:20.255Z,12416.00
2019-03-20T09:42:13.165Z,12324.00
2019-03-20T09:43:13.171Z,12152.00
2019-03-20T09:45:06.082Z,11792.00
2019-03-20T09:46:06.097Z,11636.00
2019-03-20T09:47:59.007Z,11468.00
2019-03-20T09:48:59.017Z,11284.00
2019-03-20T09:50:51.925Z,11260.00
2019-03-20T09:51:51.939Z,11448.00
2019-03-20T09:53:44.851Z,11448.00
2019-03-20T09:54:44.858Z,11416.00
2019-03-20T09:56:37.768Z,11340.00
2019-03-20T09:57:37.783Z,11312.00
2019-03-20T09:59:30.702Z,11516.00
2019-03-20T10:00:30.711Z,11872.00
2019-03-20T10:02:23.624Z,12016.00
2019-03-20T10:03:23.639Z,11988.00
2019-03-20T10:05:16.543Z,11676.00
2019-03-20T10:06:16.556Z,11416.00
2019-03-20T10:08:09.475Z,11048.00
2019-03-20T10:09:09.488Z,11092.00
2019-03-20T10:11:02.396Z,11488.00
2019-03-20T10:12:02.414Z,11496.00
2019-03-20T10:13:55.325Z,11612.00
2019-03-20T10:14:55.334Z,11864.00
2019-03-20T10:16:48.246Z,11788.00
2019-03-20T10:17:48.261Z,11996.00
2019-03-20T10:19:41.179Z,11640.00
2019-03-20T10:20:41.189Z,11480.00
2019-03-20T10:22:34.125Z,11448.00
2019-03-20T10:23:34.119Z,11240.00
2019-03-20T10:25:27.031Z,10832.00
2019-03-20T10:26:27.045Z,10640.00
2019-03-20T10:28:19.965Z,10404.00
2019-03-20T10:29:19.972Z,10304.00
2019-03-20T10:31:12.887Z,10232.00
2019-03-20T10:32:12.901Z,10204.00
2019-03-20T10:34:05.817Z,10176.00
2019-03-20T10:35:05.875Z,10268.00
2019-03-20T10:36:58.737Z,10776.00
2019-03-20T10:37:58.752Z,11064.00
2019-03-20T10:39:51.667Z,11396.00
2019-03-20T10:40:51.675Z,11552.00
2019-03-20T10:42:44.609Z,11188.00
2019-03-20T10:43:44.604Z,11136.00
2019-03-20T10:45:37.512Z,11368.00
2019-03-20T10:46:37.530Z,11756.00
2019-03-20T10:48:30.446Z,12532.00
2019-03-20T10:49:30.455Z,12460.00
2019-03-20T10:51:23.369Z,11788.00
2019-03-20T10:52:23.383Z,11388.00
2019-03-20T10:54:16.652Z,11100.00
2019-03-20T10:55:16.315Z,11188.00
2019-03-20T10:57:09.230Z,11536.00
2019-03-20T10:58:09.237Z,11840.00
2019-03-20T11:00:02.153Z,12228.00
2019-03-20T11:01:02.162Z,12300.00
2019-03-20T11:02:55.090Z,12348.00
2019-03-20T11:03:55.090Z,12356.00
2019-03-20T11:05:48.002Z,11924.00
2019-03-20T11:06:48.017Z,11372.00
2019-03-20T11:08:40.933Z,11432.00
2019-03-20T11:09:40.946Z,11564.00
2019-03-20T11:11:33.852Z,11744.00
2019-03-20T11:12:33.866Z,11908.00
2019-03-20T11:14:26.785Z,12120.00
2019-03-20T11:15:28.559Z,12056.00
2019-03-20T11:17:19.707Z,11980.00
2019-03-20T11:18:19.723Z,11992.00
2019-03-20T11:20:12.642Z,12152.00
2019-03-20T11:21:12.652Z,12200.00
2019-03-20T11:23:05.568Z,12048.00
2019-03-20T11:24:05.584Z,11836.00
2019-03-20T11:26:00.050Z,11568.00
2019-03-20T11:26:58.509Z,11540.00
2019-03-20T11:28:51.426Z,11444.00
2019-03-20T11:29:51.433Z,11372.00
2019-03-20T11:31:44.347Z,11104.00
2019-03-20T11:32:44.363Z,10896.00
2019-03-20T11:34:37.280Z,10572.00
2019-03-20T11:35:37.289Z,10580.00
2019-03-20T11:37:30.202Z,11004.00
2019-03-20T11:38:30.220Z,11224.00
2019-03-20T11:40:23.138Z,11088.00
2019-03-20T11:41:23.146Z,10992.00
2019-03-20T11:43:16.068Z,11256.00
2019-03-20T11:44:16.076Z,11604.00
2019-03-20T11:46:08.990Z,11652.00
2019-03-20T11:47:09.008Z,11244.00
2019-03-20T11:49:01.927Z,10584.00
2019-03-20T11:50:01.936Z,10464.00
2019-03-20T11:51:54.847Z,10384.00
2019-03-20T11:52:54.862Z,10312.00
2019-03-20T11:54:47.777Z,10784.00
2019-03-20T11:55:47.788Z,11372.00
2019-03-20T11:57:40.699Z,11208.00
2019-03-20T11:58:40.715Z,11024.00
2019-03-20T12:00:33.634Z,10680.00
2019-03-20T12:01:33.645Z,10740.00
2019-03-20T12:03:26.577Z,11468.00
2019-03-20T12:04:26.576Z,11788.00
2019-03-20T12:06:19.494Z,11980.00
2019-03-20T12:07:19.507Z,12044.00
2019-03-20T12:09:12.424Z,12208.00
2019-03-20T12:10:12.435Z,12240.00
2019-03-20T12:12:05.350Z,12016.00
2019-03-20T12:13:05.363Z,11636.00
2019-03-20T12:14:58.772Z,10180.00
2019-03-20T12:15:58.783Z,9044.00
2019-03-20T12:17:51.699Z,7484.00
2019-03-20T12:18:51.717Z,7076.00
2019-03-20T12:20:44.636Z,6868.00
2019-03-20T12:21:44.645Z,6932.00
2019-03-20T12:23:37.557Z,7128.00
2019-03-20T12:24:37.572Z,7464.00
2019-03-20T12:26:30.489Z,8460.00
2019-03-20T12:27:30.499Z,8956.00
2019-03-20T12:29:23.418Z,9224.00
2019-03-20T12:30:23.430Z,9020.00
2019-03-20T12:32:16.339Z,8492.00
2019-03-20T12:33:16.355Z,8068.00
2019-03-20T12:35:09.272Z,6960.00
2019-03-20T12:36:09.289Z,6536.00
2019-03-20T12:38:13.320Z,6560.00
2019-03-20T12:39:02.210Z,6776.00
2019-03-20T12:40:55.131Z,7136.00
2019-03-20T12:41:55.137Z,7196.00
2019-03-20T12:43:48.045Z,7124.00
2019-03-20T12:44:48.062Z,7128.00
2019-03-20T12:46:42.014Z,7284.00
2019-03-20T12:47:41.401Z,7372.00
2019-03-20T12:49:34.314Z,7664.00
2019-03-20T12:50:34.326Z,7896.00
2019-03-20T12:52:27.233Z,8312.00
2019-03-20T12:53:27.248Z,8440.00
2019-03-20T12:55:20.166Z,8560.00
2019-03-20T12:56:20.175Z,8652.00
2019-03-20T12:58:13.084Z,8568.00
2019-03-20T12:59:13.101Z,8396.00
2019-03-20T13:01:06.016Z,8152.00
2019-03-20T13:02:08.156Z,8144.00
2019-03-20T13:03:59.087Z,8332.00
2019-03-20T13:04:59.096Z,8412.00
2019-03-20T13:06:52.005Z,8260.00
2019-03-20T13:07:52.023Z,8056.00
2019-03-20T13:09:44.939Z,7752.00
2019-03-20T13:10:44.949Z,7712.00
2019-03-20T13:12:37.858Z,8004.00
2019-03-20T13:13:37.873Z,8176.00
2019-03-20T13:15:32.526Z,8228.00
2019-03-20T13:16:30.812Z,8184.00
2019-03-20T13:18:23.731Z,8144.00
2019-03-20T13:19:23.735Z,8200.00
2019-03-20T13:21:16.654Z,8404.00
2019-03-20T13:22:16.662Z,8356.00
2019-03-20T13:24:09.582Z,8240.00
2019-03-20T13:25:09.591Z,8292.00
2019-03-20T13:27:02.500Z,8340.00
2019-03-20T13:28:02.516Z,8252.00
2019-03-20T13:29:55.436Z,8184.00
2019-03-20T13:30:55.443Z,8168.00
2019-03-20T13:32:48.366Z,8256.00
2019-03-20T13:33:49.313Z,8340.00
2019-03-20T13:35:41.286Z,8436.00
2019-03-20T13:36:41.296Z,8484.00
2019-03-20T13:38:34.268Z,8492.00
2019-03-20T13:39:34.222Z,8448.00
2019-03-20T13:41:27.141Z,8408.00
2019-03-20T13:42:27.150Z,8364.00
2019-03-20T13:44:20.085Z,8256.00
2019-03-20T13:45:20.084Z,8244.00
2019-03-20T13:47:13.006Z,8272.00
2019-03-20T13:48:13.015Z,8292.00
2019-03-20T13:50:05.959Z,8160.00
2019-03-20T13:51:05.942Z,7972.00
2019-03-20T13:52:58.854Z,7668.00
2019-03-20T13:53:58.872Z,7692.00
2019-03-20T13:55:51.792Z,8008.00
2019-03-20T13:56:51.801Z,8244.00
2019-03-20T13:58:44.713Z,8468.00
2019-03-20T13:59:44.725Z,8404.00
2019-03-20T14:01:37.644Z,8012.00
2019-03-20T14:02:37.656Z,7780.00
2019-03-20T14:04:30.574Z,7252.00
2019-03-20T14:05:30.586Z,6968.00
2019-03-20T14:07:23.503Z,6608.00
2019-03-20T14:08:23.520Z,6400.00
2019-03-20T14:10:24.619Z,6344.00
2019-03-20T14:11:16.441Z,6552.00
2019-03-20T14:13:09.577Z,6708.00
2019-03-20T14:14:09.367Z,6664.00
2019-03-20T14:16:02.289Z,6392.00
2019-03-20T14:17:02.294Z,6236.00
2019-03-20T14:18:55.212Z,5956.00
2019-03-20T14:19:55.232Z,5764.00
2019-03-20T14:21:48.149Z,5332.00
2019-03-20T14:22:48.158Z,5252.00
2019-03-20T14:24:41.069Z,5224.00
2019-03-20T14:25:41.088Z,5144.00
2019-03-20T14:27:34.006Z,5204.00
2019-03-20T14:28:34.010Z,5276.00
2019-03-20T14:30:26.931Z,5060.00
2019-03-20T14:31:26.943Z,4852.00
2019-03-20T14:33:19.855Z,4536.00
2019-03-20T14:34:19.869Z,4352.00
2019-03-20T14:36:12.792Z,4148.00
2019-03-20T14:37:12.804Z,4132.00
2019-03-20T14:39:05.729Z,4188.00
2019-03-20T14:40:05.732Z,4164.00
2019-03-20T14:41:58.647Z,4124.00
2019-03-20T14:42:58.702Z,4176.00
2019-03-20T14:44:51.839Z,4428.00
2019-03-20T14:45:51.580Z,4576.00
2019-03-20T14:47:44.502Z,4704.00
2019-03-20T14:48:44.507Z,4728.00
2019-03-20T14:50:37.427Z,4768.00
2019-03-20T14:51:37.436Z,4736.00
2019-03-20T14:53:30.345Z,4660.00
2019-03-20T14:54:30.360Z,4532.00
2019-03-20T14:56:23.278Z,4096.00
2019-03-20T14:57:23.287Z,3952.00
2019-03-20T14:59:16.203Z,3752.00
2019-03-20T15:00:16.217Z,3668.00
2019-03-20T15:02:09.135Z,3548.00
2019-03-20T15:03:09.145Z,3456.00
2019-03-20T15:05:02.059Z,3416.00
2019-03-20T15:06:02.081Z,3384.00
2019-03-20T15:07:54.993Z,3304.00
2019-03-20T15:08:54.999Z,3304.00
2019-03-20T15:10:47.920Z,3272.00
2019-03-20T15:11:47.928Z,3232.00
2019-03-20T15:13:40.840Z,3116.00
2019-03-20T15:14:40.853Z,3064.00
2019-03-20T15:16:33.772Z,3088.00
2019-03-20T15:17:33.780Z,3128.00
2019-03-20T15:19:26.690Z,3136.00
2019-03-20T15:20:26.707Z,3124.00
2019-03-20T15:22:19.627Z,3068.00
2019-03-20T15:23:19.635Z,3012.00
2019-03-20T15:25:12.552Z,2876.00
2019-03-20T15:26:12.565Z,2812.00
2019-03-20T15:28:05.478Z,2724.00
2019-03-20T15:29:05.502Z,2700.00
2019-03-20T15:30:58.405Z,2680.00
2019-03-20T15:31:58.414Z,2684.00
2019-03-20T15:33:51.338Z,2636.00
2019-03-20T15:34:51.342Z,2588.00
2019-03-20T15:36:44.260Z,2508.00
2019-03-20T15:37:44.265Z,2460.00
2019-03-20T15:39:37.177Z,2408.00
2019-03-20T15:40:37.194Z,2364.00
2019-03-20T15:42:30.108Z,2240.00
2019-03-20T15:43:30.114Z,2156.00
2019-03-20T15:45:23.032Z,2076.00
2019-03-20T15:46:23.042Z,2060.00
2019-03-20T15:48:15.949Z,2024.00
2019-03-20T15:49:15.965Z,2004.00
2019-03-20T15:51:08.888Z,1996.00
2019-03-20T15:52:08.897Z,2028.00
2019-03-20T15:54:01.808Z,1996.00
2019-03-20T15:55:01.833Z,1940.00
2019-03-20T15:56:56.113Z,1880.00
2019-03-20T15:57:54.752Z,1924.00
2019-03-20T15:59:48.151Z,1984.00
2019-03-20T16:00:48.165Z,1940.00
2019-03-20T16:02:41.077Z,1932.00
2019-03-20T16:03:41.084Z,1936.00
2019-03-20T16:05:33.993Z,2008.00
2019-03-20T16:06:34.008Z,2068.00
2019-03-20T16:08:26.929Z,2208.00
2019-03-20T16:09:26.927Z,2364.00
2019-03-20T16:11:19.842Z,2544.00
2019-03-20T16:12:19.849Z,2636.00
2019-03-20T16:14:12.757Z,2600.00
2019-03-20T16:15:12.773Z,2696.00
2019-03-20T16:17:05.687Z,2864.00
2019-03-20T16:18:05.693Z,2792.00
2019-03-20T16:19:58.603Z,2684.00
2019-03-20T16:20:58.614Z,2556.00
2019-03-20T16:22:51.528Z,2340.00
2019-03-20T16:23:51.537Z,2332.00
2019-03-20T16:25:44.446Z,2352.00
2019-03-20T16:26:44.462Z,2384.00
2019-03-20T16:28:37.374Z,2540.00
2019-03-20T16:29:37.383Z,2620.00
2019-03-20T16:31:30.296Z,2624.00
2019-03-20T16:32:30.306Z,2532.00
2019-03-20T16:34:23.224Z,2388.00
2019-03-20T16:35:23.237Z,2348.00
2019-03-20T16:37:16.154Z,2288.00
2019-03-20T16:38:16.163Z,2272.00
2019-03-20T16:40:09.070Z,2248.00
2019-03-20T16:41:16.390Z,2248.00
2019-03-20T16:43:02.003Z,2288.00
2019-03-20T16:44:02.010Z,2292.00
2019-03-20T16:45:54.916Z,2296.00
2019-03-20T16:46:54.931Z,2300.00
2019-03-20T16:48:47.845Z,2276.00
2019-03-20T16:49:47.860Z,2260.00
2019-03-20T16:51:40.770Z,2212.00
2019-03-20T16:52:40.777Z,2144.00
2019-03-20T16:54:33.688Z,1988.00
2019-03-20T16:55:33.703Z,1916.00
2019-03-20T16:57:26.621Z,1864.00
2019-03-20T16:58:26.628Z,1868.00
2019-03-20T17:00:19.577Z,1724.00
2019-03-20T17:01:19.550Z,1620.00
2019-03-20T17:03:12.468Z,1452.00
2019-03-20T17:04:12.474Z,1368.00
2019-03-20T17:06:05.384Z,1212.00
2019-03-20T17:07:05.401Z,1136.00
2019-03-20T17:08:58.315Z,1000.00
2019-03-20T17:09:58.325Z,932.00
2019-03-20T17:11:51.236Z,832.00
2019-03-20T17:12:51.246Z,784.00
2019-03-20T17:14:44.154Z,704.00
2019-03-20T17:15:44.169Z,664.00
2019-03-20T17:17:37.084Z,596.00
2019-03-20T17:18:37.091Z,564.00
2019-03-20T17:20:30.007Z,508.00
2019-03-20T17:21:30.016Z,488.00
2019-03-20T17:23:22.937Z,448.00
2019-03-20T17:24:22.939Z,428.00
2019-03-20T17:26:15.845Z,388.00
2019-03-20T17:27:15.860Z,364.00
2019-03-20T17:29:09.380Z,324.00
2019-03-20T17:30:08.782Z,304.00
2019-03-20T17:32:01.696Z,264.00
2019-03-20T17:33:01.709Z,244.00
2019-03-20T17:34:54.610Z,208.00
2019-03-20T17:35:54.624Z,188.00
2019-03-20T17:37:47.539Z,160.00
2019-03-20T17:38:47.548Z,144.00
2019-03-20T17:40:40.452Z,120.00
2019-03-20T17:41:40.467Z,108.00
2019-03-20T17:43:33.383Z,92.00
2019-03-20T17:44:33.386Z,80.00
2019-03-20T17:46:26.340Z,68.00
2019-03-20T17:47:26.307Z,64.00
2019-03-20T17:49:19.211Z,48.00
2019-03-20T17:50:19.225Z,44.00
2019-03-20T17:52:12.140Z,28.00